Terminal Aerodrome Forecast
Issued by NWS

Home | Current Version | Previous Version | Text Only | Print | Product List | Glossary On
Versions: 1 2 3 4 5 6 7 8 9 10 11 12 13 14 15 16 17 18 19 20
000
FTUS42 KMLB 260500
TAFFPR
TAF
KFPR 260539Z 2606/2706 17008KT P6SM FEW025 SCT050 OVC100
      TEMPO 2607/2610 2SM TSRA BKN015CB OVC030
     FM261000 18012KT P6SM VCSH BKN012 OVC025
     FM261200 21013KT P6SM VCSH BKN025 OVC040
     FM261400 27015G22KT P6SM BKN025 OVC050
     FM261600 31015G23KT P6SM SCT025 BKN040 OVC250=

USA.gov is the U.S. government's official web portal to all federal, state and local government web resources and services.